Time;durP1;ratioP1;P1;durP2;ratioP2;P2;SDS_P1;SDS_P2;PMS_P1;PMS_P2;Temp;Humidity;BMP_temperature;BMP_pressure;BME280_temperature;BME280_humidity;BME280_pressure;Samples;Min_cycle;Max_cycle;Signal;HPM_P1;HPM_P2
2022/11/07 00:01:14;;;;;;;20.70;19.33;;;9.70;99.90;;;;;;5050102;28;20053;-76
2022/11/07 00:03:41;;;;;;;20.50;18.92;;;9.70;99.90;;;;;;5035915;28;20044;-76
2022/11/07 00:06:08;;;;;;;19.77;18.60;;;9.70;99.90;;;;;;5044698;28;20103;-78
2022/11/07 00:08:35;;;;;;;20.55;19.10;;;9.70;99.90;;;;;;5042952;28;20594;-77
2022/11/07 00:11:03;;;;;;;19.77;18.65;;;9.70;99.90;;;;;;5044397;28;20047;-78
2022/11/07 00:13:31;;;;;;;19.83;18.65;;;9.60;99.90;;;;;;5042316;28;20045;-78
2022/11/07 00:16:02;;;;;;;21.38;19.55;;;9.70;99.90;;;;;;5054707;28;20048;-78
2022/11/07 00:18:29;;;;;;;20.42;19.10;;;9.70;99.90;;;;;;5031361;28;20053;-76
2022/11/07 00:21:04;;;;;;;19.73;18.60;;;9.70;99.90;;;;;;5041041;28;20071;-77
2022/11/07 00:23:30;;;;;;;21.33;19.70;;;9.70;99.90;;;;;;5047467;28;20060;-78
2022/11/07 00:26:06;;;;;;;19.40;18.23;;;9.70;99.90;;;;;;5052457;28;20040;-76
2022/11/07 00:28:33;;;;;;;20.10;18.90;;;9.70;99.90;;;;;;5048914;28;20498;-78
2022/11/07 00:31:00;;;;;;;19.73;18.38;;;9.70;99.90;;;;;;5067555;28;20048;-78
2022/11/07 00:33:27;;;;;;;19.48;18.20;;;9.70;99.90;;;;;;5051681;28;20055;-78
2022/11/07 00:35:53;;;;;;;18.67;17.50;;;9.70;99.90;;;;;;5041340;28;20041;-78
2022/11/07 00:38:20;;;;;;;18.88;17.88;;;9.80;99.90;;;;;;5057845;28;20055;-77
2022/11/07 00:40:55;;;;;;;18.98;17.95;;;9.80;99.90;;;;;;5046693;28;20045;-77
2022/11/07 00:43:22;;;;;;;19.88;18.67;;;9.80;99.90;;;;;;5052052;28;20056;-76
2022/11/07 00:45:49;;;;;;;19.17;18.17;;;9.80;99.90;;;;;;5051458;28;20126;-77
2022/11/07 00:48:16;;;;;;;19.77;18.48;;;9.80;99.90;;;;;;5048819;28;20044;-76
2022/11/07 00:50:42;;;;;;;19.52;18.48;;;9.80;99.90;;;;;;5056662;28;20036;-78
2022/11/07 00:53:09;;;;;;;20.02;18.58;;;9.80;99.90;;;;;;5051627;28;20487;-77
2022/11/07 00:55:36;;;;;;;19.83;18.33;;;9.80;99.90;;;;;;5049820;28;20044;-76
2022/11/07 00:58:03;;;;;;;19.58;18.48;;;9.80;99.90;;;;;;5048594;28;20056;-77
2022/11/07 01:00:33;;;;;;;19.17;17.85;;;9.80;99.90;;;;;;5053200;28;20048;-77
2022/11/07 01:05:55;;;;;;;18.83;17.80;;;9.80;99.90;;;;;;5042799;28;20045;-78
2022/11/07 01:08:21;;;;;;;20.05;18.88;;;9.90;99.90;;;;;;5041404;28;20135;-77
2022/11/07 01:10:48;;;;;;;19.42;17.92;;;9.80;99.90;;;;;;5051142;28;20126;-78
2022/11/07 01:13:15;;;;;;;19.67;18.25;;;9.90;99.90;;;;;;5048577;28;20055;-78
2022/11/07 01:15:42;;;;;;;19.40;18.30;;;9.90;99.90;;;;;;5054742;28;20486;-78
2022/11/07 01:18:09;;;;;;;19.30;18.10;;;9.90;99.90;;;;;;5053281;28;20045;-77
2022/11/07 01:20:36;;;;;;;20.73;19.05;;;9.90;99.90;;;;;;5048246;28;20044;-77
2022/11/07 01:23:02;;;;;;;19.38;18.23;;;9.90;99.90;;;;;;5047966;28;20556;-78
2022/11/07 01:25:29;;;;;;;19.25;18.05;;;9.90;99.90;;;;;;5049322;28;20521;-77
2022/11/07 01:27:56;;;;;;;18.83;17.63;;;10.00;99.90;;;;;;5052770;28;20044;-77
2022/11/07 01:30:22;;;;;;;19.10;17.95;;;10.00;99.90;;;;;;5042629;28;20059;-77
2022/11/07 01:32:49;;;;;;;20.40;18.73;;;10.00;99.90;;;;;;5047703;28;20041;-77
2022/11/07 01:35:16;;;;;;;19.17;18.17;;;10.00;99.90;;;;;;5039918;28;20040;-77
2022/11/07 01:37:43;;;;;;;18.75;17.67;;;10.00;99.90;;;;;;5043979;28;20641;-77
2022/11/07 01:40:10;;;;;;;20.15;18.40;;;10.00;99.90;;;;;;5044860;28;20052;-78
2022/11/07 01:42:36;;;;;;;19.48;18.27;;;10.00;99.90;;;;;;5057069;28;20040;-78
2022/11/07 01:45:03;;;;;;;19.45;18.35;;;9.90;99.90;;;;;;5044054;28;20040;-77
2022/11/07 01:47:35;;;;;;;19.98;18.70;;;10.00;99.90;;;;;;5052684;28;20072;-77
2022/11/07 01:50:05;;;;;;;19.63;18.20;;;10.00;99.90;;;;;;5052068;28;20044;-78
2022/11/07 01:52:41;;;;;;;19.50;18.40;;;10.00;99.90;;;;;;5044743;28;20144;-77
2022/11/07 01:55:31;;;;;;;19.58;18.38;;;9.90;99.90;;;;;;5054346;28;20533;-77
2022/11/07 01:58:05;;;;;;;19.38;17.88;;;10.00;99.90;;;;;;5049480;28;20049;-76
2022/11/07 02:00:35;;;;;;;19.60;18.23;;;9.90;99.90;;;;;;5047544;28;20062;-77
2022/11/07 02:03:06;;;;;;;18.92;17.65;;;9.90;99.90;;;;;;5045887;28;20856;-76
2022/11/07 02:05:53;;;;;;;18.50;17.40;;;9.90;99.90;;;;;;5040763;28;20406;-77
2022/11/07 02:08:21;;;;;;;18.50;17.30;;;10.00;99.90;;;;;;5049991;28;20140;-78
2022/11/07 02:10:49;;;;;;;19.42;18.27;;;10.00;99.90;;;;;;5042693;28;20037;-76
2022/11/07 02:13:24;;;;;;;18.10;17.15;;;10.00;99.90;;;;;;5039477;28;20045;-77
2022/11/07 02:15:51;;;;;;;18.77;17.77;;;10.00;99.90;;;;;;5044748;28;20053;-78
2022/11/07 02:18:18;;;;;;;18.98;17.63;;;10.00;99.90;;;;;;5056605;28;20048;-78
2022/11/07 02:20:45;;;;;;;18.63;17.20;;;10.00;99.90;;;;;;5050974;28;20048;-77
2022/11/07 02:23:25;;;;;;;18.92;17.80;;;10.10;99.90;;;;;;5045952;28;20079;-77
2022/11/07 02:25:52;;;;;;;17.75;16.70;;;10.10;99.90;;;;;;5049438;28;20067;-78
2022/11/07 02:28:20;;;;;;;17.90;16.90;;;10.10;99.90;;;;;;5045438;28;20056;-77
2022/11/07 02:30:47;;;;;;;17.83;16.73;;;10.10;99.90;;;;;;5050731;28;20048;-77
2022/11/07 02:33:22;;;;;;;18.10;16.95;;;10.10;99.90;;;;;;5045334;28;20075;-78
2022/11/07 02:35:50;;;;;;;17.42;16.48;;;10.10;99.90;;;;;;5037514;28;20060;-78
2022/11/07 02:38:26;;;;;;;18.23;17.23;;;10.10;99.90;;;;;;5043788;28;20048;-77
2022/11/07 02:41:28;;;;;;;18.38;17.15;;;10.10;99.90;;;;;;5046865;28;20497;-77
2022/11/07 02:44:03;;;;;;;18.35;17.35;;;10.10;99.90;;;;;;5014783;28;20528;-77
2022/11/07 02:46:31;;;;;;;18.50;17.25;;;10.10;99.90;;;;;;5054830;28;20045;-76
2022/11/07 02:48:59;;;;;;;17.88;16.92;;;10.10;99.90;;;;;;5046862;28;20041;-76
2022/11/07 02:51:27;;;;;;;18.42;17.42;;;10.00;99.90;;;;;;5046557;28;20059;-77
2022/11/07 02:53:54;;;;;;;17.65;16.73;;;9.90;99.90;;;;;;5045094;28;20044;-77
2022/11/07 02:56:22;;;;;;;17.90;16.90;;;9.90;99.90;;;;;;5040329;28;20040;-77
2022/11/07 02:58:48;;;;;;;17.90;16.60;;;9.90;99.90;;;;;;5049530;28;20529;-78
2022/11/07 03:01:15;;;;;;;17.73;16.80;;;9.80;99.90;;;;;;5040120;28;20048;-78
2022/11/07 03:03:45;;;;;;;18.50;17.10;;;9.80;99.90;;;;;;5046652;28;20037;-78
2022/11/07 03:06:24;;;;;;;17.70;16.70;;;9.80;99.90;;;;;;5045325;28;20667;-77
2022/11/07 03:08:51;;;;;;;17.55;16.25;;;9.70;99.90;;;;;;5039636;28;20037;-76
2022/11/07 03:11:18;;;;;;;17.48;16.17;;;9.70;99.90;;;;;;5050638;28;20520;-76
2022/11/07 03:13:49;;;;;;;17.35;16.40;;;9.70;99.90;;;;;;5051290;28;20057;-77
2022/11/07 03:16:17;;;;;;;17.60;16.50;;;9.70;99.90;;;;;;5053682;28;20135;-77
2022/11/07 03:18:43;;;;;;;17.77;16.63;;;9.70;99.90;;;;;;5042788;28;20068;-77
2022/11/07 03:21:10;;;;;;;18.77;17.48;;;9.70;99.90;;;;;;5048973;28;20087;-78
2022/11/07 03:23:37;;;;;;;17.48;16.58;;;9.60;99.90;;;;;;5051379;28;20048;-77
2022/11/07 03:26:04;;;;;;;17.65;16.42;;;9.60;99.90;;;;;;5047511;28;20048;-77
2022/11/07 03:28:31;;;;;;;17.85;16.67;;;9.60;99.90;;;;;;5054439;28;20051;-78
2022/11/07 03:31:03;;;;;;;17.80;16.38;;;9.60;99.90;;;;;;5042275;28;20442;-77
2022/11/07 03:33:30;;;;;;;17.60;16.58;;;9.60;99.90;;;;;;5049143;28;20048;-77
2022/11/07 03:35:56;;;;;;;18.15;16.88;;;9.70;99.90;;;;;;5052100;28;20041;-79
2022/11/07 03:38:23;;;;;;;17.70;16.40;;;9.70;99.90;;;;;;5058902;28;20062;-79
2022/11/07 03:40:50;;;;;;;17.67;16.50;;;9.60;99.90;;;;;;5049022;28;20044;-77
2022/11/07 03:43:16;;;;;;;17.20;16.27;;;9.60;99.90;;;;;;5057409;28;20057;-79
2022/11/07 03:45:43;;;;;;;18.00;16.73;;;9.50;99.90;;;;;;5064997;28;20075;-77
2022/11/07 03:48:10;;;;;;;18.30;17.05;;;9.50;99.90;;;;;;5050854;28;20054;-78
2022/11/07 03:50:36;;;;;;;17.25;15.93;;;9.50;99.90;;;;;;5063889;28;20049;-79
2022/11/07 03:53:03;;;;;;;18.23;16.75;;;9.50;99.90;;;;;;5069959;28;20083;-78
2022/11/07 03:55:30;;;;;;;17.50;16.42;;;9.50;99.90;;;;;;5055296;28;20044;-77
2022/11/07 03:57:56;;;;;;;16.02;15.13;;;9.50;99.90;;;;;;5054249;28;20067;-78
2022/11/07 04:00:23;;;;;;;17.00;15.80;;;9.50;99.90;;;;;;5055433;28;20037;-78
2022/11/07 04:02:50;;;;;;;16.33;15.25;;;9.50;99.90;;;;;;5050519;28;20045;-76
2022/11/07 04:05:16;;;;;;;17.30;15.82;;;9.50;99.90;;;;;;5057968;28;20489;-78
2022/11/07 04:07:43;;;;;;;16.52;15.32;;;9.50;99.90;;;;;;5051974;28;20490;-78
2022/11/07 04:10:10;;;;;;;16.58;15.45;;;9.50;99.90;;;;;;5069952;28;20280;-78
2022/11/07 04:18:07;;;;;;;17.33;15.80;;;9.60;99.90;;;;;;5049190;28;20147;-77
2022/11/07 04:20:34;;;;;;;17.13;15.93;;;9.60;99.90;;;;;;5046126;28;20037;-78
2022/11/07 04:23:00;;;;;;;17.60;16.15;;;9.60;99.90;;;;;;5049299;28;20047;-78
2022/11/07 04:28:29;;;;;;;17.45;16.27;;;9.70;99.90;;;;;;5041858;28;20413;-78
2022/11/07 04:30:56;;;;;;;19.08;17.65;;;9.60;99.90;;;;;;5040489;28;20398;-78
2022/11/07 04:33:23;;;;;;;18.13;16.77;;;9.70;99.90;;;;;;5051001;28;20661;-78
2022/11/07 04:35:50;;;;;;;18.50;17.15;;;9.70;99.90;;;;;;5050217;28;20186;-77
2022/11/07 04:38:16;;;;;;;18.17;16.92;;;9.80;99.90;;;;;;5047583;28;20047;-78
2022/11/07 04:40:43;;;;;;;18.42;17.05;;;9.80;99.90;;;;;;5047754;28;20625;-77
2022/11/07 04:43:10;;;;;;;18.63;17.05;;;9.80;99.90;;;;;;5044052;28;20029;-78
2022/11/07 04:45:37;;;;;;;18.90;17.65;;;9.90;99.90;;;;;;5050924;28;20132;-77
2022/11/07 04:48:05;;;;;;;18.50;17.30;;;9.90;99.90;;;;;;5054527;28;20041;-79
2022/11/07 04:50:31;;;;;;;19.48;17.98;;;10.00;99.90;;;;;;5051675;28;20045;-78
2022/11/07 04:52:58;;;;;;;18.60;17.40;;;10.10;99.90;;;;;;5041538;28;20045;-77
2022/11/07 04:55:26;;;;;;;19.92;18.00;;;10.00;99.90;;;;;;5049095;28;20040;-77
2022/11/07 04:57:53;;;;;;;18.88;17.42;;;10.00;99.90;;;;;;5054388;28;20504;-79
2022/11/07 05:00:20;;;;;;;20.13;18.02;;;10.00;99.90;;;;;;5050593;28;20514;-78
2022/11/07 05:02:47;;;;;;;18.58;17.15;;;10.00;99.90;;;;;;5045111;28;20082;-79
2022/11/07 05:05:15;;;;;;;19.38;17.80;;;10.00;99.90;;;;;;5044327;28;20611;-77
2022/11/07 05:07:42;;;;;;;19.50;17.90;;;10.00;99.90;;;;;;5070260;28;20087;-77
2022/11/07 05:10:17;;;;;;;19.63;17.77;;;10.10;99.90;;;;;;5044247;28;20559;-77
2022/11/07 05:12:44;;;;;;;19.33;17.75;;;10.10;99.90;;;;;;5052379;28;20080;-78
2022/11/07 05:15:11;;;;;;;18.90;17.70;;;10.10;99.90;;;;;;5051084;28;20047;-79
2022/11/07 05:17:38;;;;;;;19.63;17.90;;;10.20;99.90;;;;;;5047014;28;20044;-78
2022/11/07 05:20:05;;;;;;;19.05;17.63;;;10.20;99.90;;;;;;5048679;28;20509;-78
2022/11/07 05:25:22;;;;;;;19.45;17.83;;;10.30;99.90;;;;;;5054555;28;20131;-78
2022/11/07 05:27:54;;;;;;;19.27;17.38;;;10.30;99.90;;;;;;5047779;28;20044;-78
2022/11/07 05:30:20;;;;;;;22.90;19.60;;;10.40;99.90;;;;;;5050762;28;20567;-77
2022/11/07 05:32:47;;;;;;;19.95;18.60;;;10.30;99.90;;;;;;5050072;28;20599;-78
2022/11/07 05:35:14;;;;;;;20.05;18.75;;;10.30;99.90;;;;;;5059752;28;20590;-77
2022/11/07 05:37:40;;;;;;;20.73;19.23;;;10.30;99.90;;;;;;5053178;28;20049;-77
2022/11/07 05:40:08;;;;;;;19.92;18.70;;;10.30;99.90;;;;;;5052831;28;20543;-77
2022/11/07 05:42:34;;;;;;;20.40;18.60;;;10.20;99.90;;;;;;5054331;28;20045;-78
2022/11/07 05:45:01;;;;;;;20.60;18.92;;;10.20;99.90;;;;;;5048257;28;20040;-77
2022/11/07 05:47:27;;;;;;;21.85;19.80;;;10.20;99.90;;;;;;5052191;28;20075;-77
2022/11/07 05:49:54;;;;;;;20.30;18.90;;;10.10;99.90;;;;;;5050267;28;20033;-78
2022/11/07 05:52:21;;;;;;;20.00;18.70;;;10.20;99.90;;;;;;5046101;28;20564;-77
2022/11/07 05:54:47;;;;;;;20.90;18.77;;;10.10;99.90;;;;;;5051572;28;20792;-78
2022/11/07 05:57:14;;;;;;;19.65;18.25;;;10.10;99.90;;;;;;5048834;28;20051;-78
2022/11/07 05:59:41;;;;;;;19.15;17.83;;;10.10;99.90;;;;;;5040961;28;20131;-78
2022/11/07 06:02:07;;;;;;;20.08;18.17;;;10.00;99.90;;;;;;5043558;28;20041;-77
2022/11/07 06:04:34;;;;;;;18.75;17.65;;;10.00;99.90;;;;;;5055661;28;20040;-78
2022/11/07 06:07:01;;;;;;;19.98;18.35;;;10.10;99.90;;;;;;5053944;28;20048;-77
2022/11/07 06:09:28;;;;;;;20.40;18.80;;;10.10;99.90;;;;;;5047490;28;20033;-77
2022/11/07 06:11:54;;;;;;;20.00;18.60;;;10.10;99.90;;;;;;5036654;28;20726;-77
2022/11/07 06:14:21;;;;;;;20.67;19.10;;;10.10;99.90;;;;;;5040566;28;20091;-78
2022/11/07 06:16:48;;;;;;;21.15;19.42;;;10.20;99.90;;;;;;5046328;28;20044;-77
2022/11/07 06:19:14;;;;;;;20.48;19.02;;;10.30;99.90;;;;;;5056557;28;20052;-78
2022/11/07 06:21:41;;;;;;;20.45;18.92;;;10.30;99.90;;;;;;5053167;28;20048;-76
2022/11/07 06:24:09;;;;;;;21.83;19.88;;;10.30;99.90;;;;;;5046945;28;20049;-79
2022/11/07 06:26:41;;;;;;;20.88;19.10;;;10.20;99.90;;;;;;5048719;28;20428;-77
2022/11/07 06:29:07;;;;;;;19.83;18.60;;;10.20;99.90;;;;;;5038750;28;20053;-77
2022/11/07 06:31:34;;;;;;;20.20;18.80;;;10.20;99.90;;;;;;5054809;28;20063;-78
2022/11/07 06:34:01;;;;;;;21.42;19.52;;;10.20;99.90;;;;;;5039847;28;20638;-78
2022/11/07 06:36:28;;;;;;;20.70;19.33;;;10.30;99.90;;;;;;5036425;28;20037;-77
2022/11/07 06:38:55;;;;;;;20.15;18.63;;;10.30;99.90;;;;;;5056674;28;20120;-78
2022/11/07 06:41:21;;;;;;;19.77;18.48;;;10.20;99.90;;;;;;5040686;28;20045;-77
2022/11/07 06:43:51;;;;;;;21.58;19.92;;;10.20;99.90;;;;;;5061916;28;20421;-77
2022/11/07 06:46:18;;;;;;;20.67;19.15;;;10.10;99.90;;;;;;5044377;28;20045;-77
2022/11/07 06:48:45;;;;;;;20.63;19.17;;;10.10;99.90;;;;;;5052946;28;20465;-78
2022/11/07 06:51:12;;;;;;;21.20;19.40;;;10.00;99.90;;;;;;5053507;28;20036;-77
2022/11/07 06:53:39;;;;;;;20.92;19.38;;;10.00;99.90;;;;;;5039842;28;20040;-78
2022/11/07 06:56:14;;;;;;;21.98;19.98;;;10.10;99.90;;;;;;5045957;28;20037;-77
2022/11/07 06:58:41;;;;;;;21.77;20.13;;;10.10;99.90;;;;;;5045529;28;20566;-78
2022/11/07 07:01:12;;;;;;;20.85;19.42;;;10.20;99.90;;;;;;5039115;28;20037;-77
2022/11/07 07:03:40;;;;;;;21.40;19.88;;;10.20;99.90;;;;;;5050401;28;20103;-78
2022/11/07 07:06:11;;;;;;;21.50;19.90;;;10.30;99.90;;;;;;5037761;28;20040;-76
2022/11/07 07:08:38;;;;;;;21.88;20.25;;;10.30;99.90;;;;;;5051394;28;20041;-77
2022/11/07 07:11:08;;;;;;;22.05;20.02;;;10.30;99.90;;;;;;5050422;28;20041;-77
2022/11/07 07:13:36;;;;;;;22.33;20.63;;;10.20;99.90;;;;;;5047445;28;20037;-77
2022/11/07 07:16:03;;;;;;;21.65;20.15;;;10.20;99.90;;;;;;5057277;28;20043;-76
2022/11/07 07:18:30;;;;;;;21.20;19.45;;;10.30;99.90;;;;;;5051528;28;20045;-77
2022/11/07 07:21:11;;;;;;;22.95;20.85;;;10.40;99.90;;;;;;5045049;28;20316;-77
2022/11/07 07:23:38;;;;;;;20.92;19.55;;;10.40;99.90;;;;;;5049042;28;20040;-77
2022/11/07 07:26:08;;;;;;;21.75;19.95;;;10.60;99.90;;;;;;5044721;28;20033;-77
2022/11/07 07:28:36;;;;;;;21.70;19.80;;;10.70;99.90;;;;;;5051040;28;20055;-76
2022/11/07 07:31:14;;;;;;;21.65;20.30;;;10.70;99.90;;;;;;5041092;28;20071;-77
2022/11/07 07:33:42;;;;;;;23.15;20.70;;;10.80;99.90;;;;;;5056809;28;20041;-77
2022/11/07 07:36:10;;;;;;;22.90;21.30;;;10.80;99.90;;;;;;5044047;28;20051;-77
2022/11/07 07:38:42;;;;;;;22.45;20.65;;;10.80;99.90;;;;;;5053913;28;20055;-78
2022/11/07 07:41:09;;;;;;;23.08;21.15;;;10.80;99.90;;;;;;5041030;28;20049;-78
2022/11/07 07:43:36;;;;;;;22.92;21.05;;;10.80;99.90;;;;;;5047995;28;20575;-77
2022/11/07 07:46:06;;;;;;;23.80;21.65;;;10.80;99.90;;;;;;5047293;28;20041;-76
2022/11/07 07:48:32;;;;;;;23.15;21.45;;;10.90;99.90;;;;;;5037317;28;20104;-78
2022/11/07 07:50:59;;;;;;;24.13;22.13;;;10.90;99.90;;;;;;5046421;28;20036;-77
2022/11/07 07:53:26;;;;;;;22.98;21.08;;;10.90;99.90;;;;;;5044805;28;20606;-77
2022/11/07 07:55:57;;;;;;;23.63;21.55;;;10.90;99.90;;;;;;5047140;28;20045;-77
2022/11/07 07:58:25;;;;;;;22.30;20.67;;;11.00;99.90;;;;;;5055276;28;20044;-77
2022/11/07 08:00:53;;;;;;;22.45;20.80;;;11.00;99.90;;;;;;5059818;28;20536;-79
2022/11/07 08:03:20;;;;;;;22.50;21.13;;;11.20;99.90;;;;;;5050396;28;20383;-78
2022/11/07 08:05:55;;;;;;;23.70;21.58;;;11.20;99.90;;;;;;5049627;28;20139;-78
2022/11/07 08:08:23;;;;;;;23.38;21.23;;;11.30;99.90;;;;;;5044763;28;20056;-78
2022/11/07 08:10:55;;;;;;;23.00;21.48;;;11.40;99.90;;;;;;5046561;28;20037;-78
2022/11/07 08:13:25;;;;;;;22.85;21.08;;;11.40;99.90;;;;;;5065312;28;20135;-77
2022/11/07 08:15:52;;;;;;;23.00;21.42;;;11.40;99.90;;;;;;5049321;28;20054;-78
2022/11/07 08:18:23;;;;;;;23.60;21.83;;;11.50;99.90;;;;;;5052280;28;20056;-77
2022/11/07 08:20:52;;;;;;;23.02;21.40;;;11.60;99.90;;;;;;5055102;28;20163;-78
2022/11/07 08:23:19;;;;;;;23.00;21.17;;;11.70;99.90;;;;;;5047477;28;20071;-78
2022/11/07 08:25:51;;;;;;;24.10;22.30;;;11.70;99.90;;;;;;5046866;28;20156;-77
2022/11/07 08:28:24;;;;;;;22.10;20.70;;;11.80;99.90;;;;;;5053986;28;20047;-79
2022/11/07 08:31:01;;;;;;;23.08;21.55;;;11.80;99.90;;;;;;5048515;28;20107;-76
2022/11/07 08:33:28;;;;;;;23.42;21.67;;;11.80;99.90;;;;;;5048843;28;20053;-79
2022/11/07 08:36:00;;;;;;;22.65;20.98;;;11.90;99.90;;;;;;5049406;28;20041;-79
2022/11/07 08:38:29;;;;;;;23.45;21.65;;;11.90;99.90;;;;;;5054007;28;20131;-77
2022/11/07 08:40:56;;;;;;;23.10;21.20;;;11.90;99.90;;;;;;5054129;28;20055;-77
2022/11/07 08:43:24;;;;;;;21.60;20.17;;;12.00;99.90;;;;;;5048312;28;20044;-77
2022/11/07 08:45:52;;;;;;;23.10;21.20;;;12.00;99.90;;;;;;5042631;28;20562;-77
2022/11/07 08:48:20;;;;;;;23.73;21.58;;;11.90;99.90;;;;;;5056499;28;20037;-77
2022/11/07 08:50:54;;;;;;;22.30;20.52;;;12.00;99.90;;;;;;5059119;28;20051;-77
2022/11/07 08:53:22;;;;;;;22.10;20.40;;;12.00;99.90;;;;;;5041106;28;20056;-77
2022/11/07 08:55:49;;;;;;;24.42;22.23;;;12.00;99.90;;;;;;5040358;28;20052;-77
2022/11/07 08:58:16;;;;;;;23.52;21.63;;;12.00;99.90;;;;;;5043680;28;20529;-77
2022/11/07 09:00:43;;;;;;;25.95;23.75;;;12.00;99.90;;;;;;5047617;28;20071;-77
2022/11/07 09:03:10;;;;;;;25.55;23.58;;;12.10;99.90;;;;;;5046556;28;20409;-78
2022/11/07 09:05:57;;;;;;;25.05;23.08;;;12.10;99.90;;;;;;5044956;28;20086;-77
2022/11/07 09:08:24;;;;;;;23.85;22.08;;;12.20;99.90;;;;;;5057797;28;20074;-77
2022/11/07 09:10:51;;;;;;;23.55;21.92;;;12.30;99.90;;;;;;5051745;28;20044;-77
2022/11/07 09:13:19;;;;;;;23.13;21.33;;;12.30;99.90;;;;;;5039663;28;20048;-77
2022/11/07 09:15:46;;;;;;;23.60;21.67;;;12.30;99.90;;;;;;5064963;28;20047;-76
2022/11/07 09:18:18;;;;;;;23.60;21.52;;;12.40;99.90;;;;;;5045689;28;20052;-77
2022/11/07 09:20:45;;;;;;;23.42;21.52;;;12.40;99.90;;;;;;5044104;28;20087;-78
2022/11/07 09:23:12;;;;;;;24.55;21.70;;;12.50;99.90;;;;;;5048237;28;20063;-78
2022/11/07 09:25:39;;;;;;;23.50;21.58;;;12.60;99.90;;;;;;5040312;28;20044;-77
2022/11/07 09:28:06;;;;;;;23.27;21.25;;;12.60;99.90;;;;;;5043204;28;20041;-77
2022/11/07 09:30:33;;;;;;;24.05;22.35;;;12.60;99.90;;;;;;5035877;28;20102;-76
2022/11/07 09:32:59;;;;;;;23.02;21.35;;;12.60;99.90;;;;;;5045388;28;20486;-76
2022/11/07 09:35:26;;;;;;;22.92;21.38;;;12.60;99.90;;;;;;5047544;28;20051;-77
2022/11/07 09:37:53;;;;;;;23.52;21.58;;;12.60;99.90;;;;;;5047263;28;20704;-76
2022/11/07 09:40:26;;;;;;;22.75;21.55;;;12.70;99.90;;;;;;5036111;28;20044;-79
2022/11/07 09:43:07;;;;;;;25.05;22.92;;;12.80;99.90;;;;;;5057931;28;20498;-77
2022/11/07 09:45:48;;;;;;;23.20;21.35;;;12.90;99.90;;;;;;5051737;28;20040;-77
2022/11/07 09:48:21;;;;;;;22.83;21.10;;;12.90;99.90;;;;;;5036835;28;20079;-75
2022/11/07 09:50:49;;;;;;;22.20;20.83;;;12.90;99.90;;;;;;5075795;28;20041;-76
2022/11/07 09:53:34;;;;;;;23.00;20.98;;;12.90;99.90;;;;;;5049488;28;20048;-76
2022/11/07 09:56:05;;;;;;;;;;;12.90;99.90;;;;;;5036430;28;20081;-75
2022/11/07 09:58:39;;;;;;;22.33;20.77;;;12.90;99.90;;;;;;5037707;28;20039;-78
2022/11/07 10:01:18;;;;;;;23.08;21.45;;;12.90;99.90;;;;;;5051395;28;20047;-78
2022/11/07 10:03:46;;;;;;;22.58;21.17;;;12.90;99.90;;;;;;5067853;28;20037;-77
2022/11/07 10:06:44;;;;;;;22.92;21.13;;;12.90;99.90;;;;;;5047249;28;20055;-77
2022/11/07 10:09:33;;;;;;;23.15;21.30;;;12.90;99.90;;;;;;5052792;28;20046;-76
2022/11/07 10:12:29;;;;;;;20.95;19.65;;;12.90;99.90;;;;;;5050616;28;20501;-76
2022/11/07 10:15:09;;;;;;;21.08;19.80;;;12.90;99.90;;;;;;5007421;28;20081;-76
2022/11/07 10:18:16;;;;;;;22.52;21.08;;;12.80;99.90;;;;;;5045248;28;20052;-77
2022/11/07 10:20:54;;;;;;;21.75;20.05;;;12.80;99.90;;;;;;5068862;28;20037;-76
2022/11/07 10:24:18;;;;;;;22.45;20.55;;;12.80;99.90;;;;;;5064727;28;20737;-76
2022/11/07 10:26:45;;;;;;;21.42;19.80;;;12.80;99.90;;;;;;5050436;28;20077;-76
2022/11/07 10:29:19;;;;;;;21.38;19.92;;;12.70;99.90;;;;;;5048643;28;20037;-77
2022/11/07 10:31:56;;;;;;;20.70;19.47;;;12.80;99.90;;;;;;5052203;28;20125;-76
2022/11/07 10:34:40;;;;;;;22.60;20.73;;;12.70;99.90;;;;;;5042745;28;20293;-77
2022/11/07 10:37:08;;;;;;;20.67;19.08;;;12.80;99.90;;;;;;5049127;28;20351;-77
2022/11/07 10:39:35;;;;;;;20.05;18.85;;;12.70;99.90;;;;;;5055997;28;20040;-76
2022/11/07 10:42:09;;;;;;;22.40;20.55;;;12.70;99.90;;;;;;5034812;28;20032;-77
2022/11/07 10:44:39;;;;;;;22.33;20.70;;;12.70;99.90;;;;;;5045856;28;20051;-75
2022/11/07 10:47:21;;;;;;;22.52;21.00;;;12.70;99.90;;;;;;5049295;28;20061;-75
2022/11/07 10:49:56;;;;;;;23.40;21.55;;;12.60;99.90;;;;;;5051746;28;20033;-75
2022/11/07 10:52:24;;;;;;;21.90;20.20;;;12.70;99.90;;;;;;5020302;28;20075;-76
2022/11/07 10:54:50;;;;;;;21.77;20.08;;;12.70;99.90;;;;;;5036446;28;20039;-77
2022/11/07 10:57:19;;;;;;;21.15;19.50;;;12.70;99.90;;;;;;5049763;28;20720;-75
2022/11/07 10:59:56;;;;;;;22.92;21.23;;;12.70;99.90;;;;;;5052180;28;20143;-76
2022/11/07 11:02:26;;;;;;;21.95;20.17;;;12.70;99.90;;;;;;5052425;28;20052;-76
2022/11/07 11:04:59;;;;;;;22.90;21.02;;;12.70;99.90;;;;;;5039487;28;20056;-76
2022/11/07 11:07:32;;;;;;;22.17;20.77;;;12.70;99.90;;;;;;5057032;28;20048;-77
2022/11/07 11:09:59;;;;;;;24.17;22.42;;;12.70;99.90;;;;;;5039327;28;20124;-75
2022/11/07 11:12:32;;;;;;;23.75;21.70;;;12.80;99.90;;;;;;5052394;28;20554;-76
2022/11/07 11:15:18;;;;;;;21.90;20.23;;;12.80;99.90;;;;;;5048103;28;20057;-78
2022/11/07 11:17:45;;;;;;;23.02;21.52;;;12.90;99.90;;;;;;5054976;28;20055;-76
2022/11/07 11:20:53;;;;;;;23.45;21.60;;;12.90;99.90;;;;;;5043333;28;20141;-78
2022/11/07 11:23:24;;;;;;;23.00;21.02;;;12.90;99.90;;;;;;5054417;28;20072;-76
2022/11/07 11:25:57;;;;;;;23.58;21.60;;;12.80;99.90;;;;;;5040534;28;20033;-78
2022/11/07 11:28:32;;;;;;;21.63;20.17;;;12.80;99.90;;;;;;5037164;28;20045;-75
2022/11/07 11:31:06;;;;;;;24.10;22.02;;;12.80;99.90;;;;;;5048856;28;20068;-77
2022/11/07 11:33:46;;;;;;;24.27;22.00;;;12.80;99.90;;;;;;5044063;28;20048;-77
2022/11/07 11:36:20;;;;;;;23.13;21.52;;;12.80;99.90;;;;;;5043767;28;20095;-78
2022/11/07 11:38:53;;;;;;;22.70;21.10;;;12.80;99.90;;;;;;5032848;28;20047;-77
2022/11/07 11:41:52;;;;;;;23.45;21.63;;;12.80;99.90;;;;;;5064902;28;20127;-76
2022/11/07 11:44:36;;;;;;;23.67;22.13;;;12.90;99.90;;;;;;5052490;28;20045;-76
2022/11/07 11:47:21;;;;;;;23.13;21.40;;;13.00;99.90;;;;;;5053452;28;20049;-76
2022/11/07 11:49:53;;;;;;;23.75;21.65;;;12.90;99.90;;;;;;5037202;28;20043;-76
2022/11/07 11:52:23;;;;;;;23.05;21.42;;;12.90;99.90;;;;;;5037262;28;20090;-76
2022/11/07 11:54:51;;;;;;;22.02;20.45;;;12.90;99.90;;;;;;5056055;28;20041;-77
2022/11/07 11:58:31;;;;;;;22.13;20.73;;;13.00;99.90;;;;;;5052114;28;20416;-77
2022/11/07 12:01:13;;;;;;;21.75;20.50;;;13.00;99.90;;;;;;4925429;28;20555;-77
2022/11/07 12:03:56;;;;;;;24.02;22.23;;;12.90;99.90;;;;;;4982763;28;20042;-77
2022/11/07 12:06:37;;;;;;;22.13;20.65;;;12.80;99.90;;;;;;5038365;28;20136;-76
2022/11/07 12:09:14;;;;;;;24.10;21.75;;;12.80;99.90;;;;;;5047821;28;20493;-77
2022/11/07 12:12:10;;;;;;;22.13;20.73;;;12.80;99.90;;;;;;5041482;28;20048;-77
2022/11/07 12:14:42;;;;;;;26.25;24.15;;;12.70;99.90;;;;;;5061814;28;20072;-76
2022/11/07 12:17:25;;;;;;;22.70;20.85;;;12.70;99.90;;;;;;5051908;28;20064;-76
2022/11/07 12:20:16;;;;;;;20.10;18.48;;;12.50;99.90;;;;;;5051147;28;20045;-75
2022/11/07 12:23:10;;;;;;;17.85;16.75;;;12.20;99.90;;;;;;5042132;28;20737;-76
2022/11/07 12:25:42;;;;;;;16.80;15.65;;;12.00;99.90;;;;;;5045947;28;20056;-77
2022/11/07 12:28:33;;;;;;;15.80;14.63;;;11.80;99.90;;;;;;5055205;28;20435;-76
2022/11/07 12:31:09;;;;;;;15.43;14.20;;;11.80;99.90;;;;;;5043549;28;20494;-75
2022/11/07 12:33:41;;;;;;;15.05;13.80;;;11.80;99.90;;;;;;5043661;28;20623;-76
2022/11/07 12:36:28;;;;;;;15.55;14.00;;;11.80;99.90;;;;;;5045918;28;20040;-75
2022/11/07 12:39:18;;;;;;;14.02;13.02;;;11.80;99.90;;;;;;5043134;28;20056;-75
2022/11/07 12:42:12;;;;;;;15.25;14.07;;;11.80;99.90;;;;;;5040492;28;20769;-75
2022/11/07 12:45:13;;;;;;;17.50;15.98;;;11.80;99.90;;;;;;5039367;28;20048;-75
2022/11/07 12:48:02;;;;;;;16.63;15.20;;;11.90;99.90;;;;;;5038784;28;20048;-74
2022/11/07 12:51:20;;;;;;;16.48;15.18;;;11.90;99.90;;;;;;5043683;28;20449;-75
2022/11/07 12:54:09;;;;;;;17.45;16.00;;;11.90;99.90;;;;;;5019520;28;20086;-75
2022/11/07 12:56:44;;;;;;;19.10;17.25;;;12.00;99.90;;;;;;5048689;28;20053;-75
2022/11/07 12:59:25;;;;;;;19.58;18.02;;;12.10;99.90;;;;;;5047420;28;20151;-75
2022/11/07 13:02:35;;;;;;;19.45;18.15;;;12.20;99.90;;;;;;5051340;28;20072;-76
2022/11/07 13:05:26;;;;;;;19.75;18.65;;;12.30;99.90;;;;;;5047757;28;20041;-75
2022/11/07 13:07:59;;;;;;;20.83;19.13;;;12.20;99.90;;;;;;5026884;28;20106;-75